Time;durP1;ratioP1;P1;durP2;ratioP2;P2;SDS_P1;SDS_P2;PMS_P1;PMS_P2;Temp;Humidity;BMP_temperature;BMP_pressure;BME280_temperature;BME280_humidity;BME280_pressure;Samples;Min_cycle;Max_cycle;Signal;HPM_P1;HPM_P2
2021/10/19 00:01:02;;;;;;;7.20;4.63;;;;;;;;;;6277585;22;20174;-61
2021/10/19 00:03:28;;;;;;;5.43;4.35;;;;;;;;;;6278202;22;20144;-62
2021/10/19 00:05:54;;;;;;;6.30;4.40;;;;;;;;;;6278192;22;20170;-60
2021/10/19 00:08:20;;;;;;;6.93;4.82;;;;;;;;;;6277998;22;20139;-60
2021/10/19 00:10:46;;;;;;;6.43;4.80;;;;;;;;;;6278432;22;20178;-62
2021/10/19 00:13:11;;;;;;;8.27;4.80;;;;;;;;;;6278161;22;20139;-61
2021/10/19 00:15:38;;;;;;;6.45;4.53;;;;;;;;;;6278098;22;20147;-62
2021/10/19 00:18:04;;;;;;;7.53;4.35;;;;;;;;;;6278201;22;20143;-61
2021/10/19 00:20:30;;;;;;;8.55;4.70;;;;;;;;;;6278051;22;20451;-62
2021/10/19 00:22:56;;;;;;;7.25;4.70;;;;;;;;;;6277978;22;20174;-61
2021/10/19 00:25:22;;;;;;;6.32;4.80;;;;;;;;;;6277677;22;20159;-61
2021/10/19 00:27:49;;;;;;;6.80;4.75;;;;;;;;;;6278003;22;20198;-62
2021/10/19 00:30:15;;;;;;;7.97;4.88;;;;;;;;;;6278296;22;20225;-62
2021/10/19 00:32:41;;;;;;;6.47;4.70;;;;;;;;;;6278088;22;20441;-62
2021/10/19 00:35:08;;;;;;;6.18;4.70;;;;;;;;;;6277947;22;20222;-62
2021/10/19 00:37:34;;;;;;;9.70;4.72;;;;;;;;;;6278048;22;20166;-62
2021/10/19 00:40:00;;;;;;;5.75;4.55;;;;;;;;;;6277919;22;20443;-61
2021/10/19 00:42:26;;;;;;;6.38;4.80;;;;;;;;;;6277866;22;20195;-62
2021/10/19 00:44:52;;;;;;;6.68;5.07;;;;;;;;;;6278205;22;20136;-62
2021/10/19 00:47:22;;;;;;;11.18;5.03;;;;;;;;;;6277847;22;20151;-62
2021/10/19 00:49:48;;;;;;;9.15;5.07;;;;;;;;;;6278125;22;20201;-62
2021/10/19 00:52:15;;;;;;;6.57;4.53;;;;;;;;;;6277702;22;20151;-62
2021/10/19 00:54:42;;;;;;;5.25;4.43;;;;;;;;;;6277877;22;20148;-62
2021/10/19 00:57:08;;;;;;;8.15;5.00;;;;;;;;;;6277712;22;20157;-61
2021/10/19 00:59:36;;;;;;;7.38;5.60;;;;;;;;;;6277541;22;20222;-62
2021/10/19 01:02:03;;;;;;;6.60;4.65;;;;;;;;;;6277409;22;20167;-62
2021/10/19 01:04:29;;;;;;;5.80;4.72;;;;;;;;;;6277569;22;20216;-61
2021/10/19 01:06:55;;;;;;;6.95;5.03;;;;;;;;;;6277408;22;20570;-62
2021/10/19 01:09:21;;;;;;;5.90;5.13;;;;;;;;;;6277509;22;20140;-62
2021/10/19 01:11:47;;;;;;;7.47;5.40;;;;;;;;;;6277784;22;20593;-61
2021/10/19 01:14:13;;;;;;;5.82;4.60;;;;;;;;;;6277769;22;20226;-61
2021/10/19 01:16:39;;;;;;;6.78;5.05;;;;;;;;;;6277475;22;20146;-62
2021/10/19 01:19:05;;;;;;;6.38;4.82;;;;;;;;;;6277341;22;20167;-62
2021/10/19 01:21:31;;;;;;;6.93;4.72;;;;;;;;;;6277529;22;20200;-62
2021/10/19 01:23:56;;;;;;;6.10;5.20;;;;;;;;;;6277078;22;20539;-62
2021/10/19 01:26:23;;;;;;;5.40;4.78;;;;;;;;;;6276905;22;20523;-62
2021/10/19 01:28:49;;;;;;;7.25;4.93;;;;;;;;;;6277447;22;20162;-62
2021/10/19 01:31:15;;;;;;;7.18;4.95;;;;;;;;;;6277385;22;20247;-61
2021/10/19 01:33:41;;;;;;;6.63;5.20;;;;;;;;;;6277429;22;20139;-62
2021/10/19 01:36:08;;;;;;;7.43;4.93;;;;;;;;;;6276969;22;20140;-62
2021/10/19 01:38:35;;;;;;;7.20;5.50;;;;;;;;;;6277132;22;20198;-62
2021/10/19 01:41:02;;;;;;;5.90;4.93;;;;;;;;;;6276810;22;20171;-62
2021/10/19 01:43:28;;;;;;;8.98;6.05;;;;;;;;;;6276879;22;20206;-61
2021/10/19 01:45:55;;;;;;;7.78;5.63;;;;;;;;;;6276729;22;20167;-62
2021/10/19 01:48:21;;;;;;;9.25;5.68;;;;;;;;;;6276761;22;20136;-61
2021/10/19 01:50:47;;;;;;;8.23;5.57;;;;;;;;;;6276871;22;20171;-62
2021/10/19 01:53:13;;;;;;;7.90;5.28;;;;;;;;;;6276818;22;20166;-60
2021/10/19 01:55:39;;;;;;;8.27;5.15;;;;;;;;;;6276497;22;20131;-61
2021/10/19 01:58:06;;;;;;;7.60;5.30;;;;;;;;;;6276967;22;20158;-60
2021/10/19 02:00:32;;;;;;;7.75;5.13;;;;;;;;;;6276630;22;20183;-62
2021/10/19 02:02:58;;;;;;;7.28;5.18;;;;;;;;;;6276823;22;20202;-62
2021/10/19 02:05:24;;;;;;;7.28;4.93;;;;;;;;;;6276960;22;20543;-62
2021/10/19 02:07:50;;;;;;;6.97;5.10;;;;;;;;;;6276515;22;20139;-62
2021/10/19 02:10:16;;;;;;;6.45;5.10;;;;;;;;;;6276611;22;20146;-61
2021/10/19 02:12:42;;;;;;;6.03;4.47;;;;;;;;;;6276997;22;20172;-61
2021/10/19 02:15:09;;;;;;;7.53;5.28;;;;;;;;;;6276424;22;20143;-62
2021/10/19 02:17:35;;;;;;;7.45;5.20;;;;;;;;;;6276461;22;20154;-62
2021/10/19 02:20:01;;;;;;;7.22;5.00;;;;;;;;;;6276526;22;20632;-62
2021/10/19 02:22:28;;;;;;;7.50;5.35;;;;;;;;;;6276275;22;20198;-62
2021/10/19 02:24:54;;;;;;;7.75;5.60;;;;;;;;;;6276757;22;20139;-62
2021/10/19 02:27:20;;;;;;;7.05;5.15;;;;;;;;;;6276506;22;20160;-62
2021/10/19 02:29:46;;;;;;;7.95;5.22;;;;;;;;;;6277005;22;20219;-62
2021/10/19 02:32:12;;;;;;;8.35;5.50;;;;;;;;;;6276419;22;20143;-62
2021/10/19 02:34:38;;;;;;;9.10;5.75;;;;;;;;;;6276443;22;20166;-62
2021/10/19 02:37:04;;;;;;;7.55;5.32;;;;;;;;;;6276399;22;20342;-61
2021/10/19 02:39:29;;;;;;;6.88;5.10;;;;;;;;;;6276392;22;20221;-62
2021/10/19 02:41:55;;;;;;;8.40;5.47;;;;;;;;;;6276122;22;20171;-62
2021/10/19 02:44:21;;;;;;;7.50;5.35;;;;;;;;;;6276679;22;20166;-62
2021/10/19 02:46:47;;;;;;;5.97;5.18;;;;;;;;;;6276342;22;20649;-62
2021/10/19 02:49:13;;;;;;;5.78;5.18;;;;;;;;;;6276739;22;20135;-62
2021/10/19 02:51:39;;;;;;;6.43;5.05;;;;;;;;;;6278632;22;20144;-62
2021/10/19 02:54:05;;;;;;;7.20;5.28;;;;;;;;;;6278494;22;20147;-62
2021/10/19 02:56:31;;;;;;;7.18;5.07;;;;;;;;;;6278784;22;20193;-62
2021/10/19 02:58:57;;;;;;;6.93;5.57;;;;;;;;;;6279390;22;20226;-62
2021/10/19 03:01:23;;;;;;;8.63;6.00;;;;;;;;;;6279341;22;20170;-62
2021/10/19 03:03:49;;;;;;;7.95;5.40;;;;;;;;;;6278621;22;20143;-62
2021/10/19 03:06:15;;;;;;;8.40;5.75;;;;;;;;;;6278736;22;20147;-62
2021/10/19 03:08:41;;;;;;;11.90;5.25;;;;;;;;;;6278190;22;20215;-62
2021/10/19 03:11:07;;;;;;;9.70;5.55;;;;;;;;;;6278535;22;20205;-62
2021/10/19 03:13:33;;;;;;;7.10;5.85;;;;;;;;;;6278215;22;20147;-62
2021/10/19 03:15:59;;;;;;;10.38;5.80;;;;;;;;;;6278318;22;20144;-62
2021/10/19 03:18:24;;;;;;;6.97;6.10;;;;;;;;;;6278157;22;20139;-62
2021/10/19 03:20:50;;;;;;;8.85;5.68;;;;;;;;;;6278687;22;20159;-62
2021/10/19 03:23:16;;;;;;;8.57;6.10;;;;;;;;;;6278038;22;20139;-62
2021/10/19 03:25:43;;;;;;;10.38;5.80;;;;;;;;;;6277979;22;20155;-62
2021/10/19 03:28:08;;;;;;;9.00;6.60;;;;;;;;;;6278416;22;20144;-62
2021/10/19 03:30:35;;;;;;;8.35;6.57;;;;;;;;;;6278103;22;20151;-62
2021/10/19 03:33:02;;;;;;;7.15;6.40;;;;;;;;;;6278035;22;20174;-62
2021/10/19 03:35:28;;;;;;;8.82;6.20;;;;;;;;;;6278066;22;20143;-62
2021/10/19 03:37:55;;;;;;;7.55;6.13;;;;;;;;;;6278284;22;20219;-62
2021/10/19 03:40:21;;;;;;;9.73;6.63;;;;;;;;;;6277958;22;20144;-62
2021/10/19 03:42:48;;;;;;;8.60;6.72;;;;;;;;;;6277937;22;20632;-62
2021/10/19 03:45:14;;;;;;;8.85;7.40;;;;;;;;;;6278118;22;20535;-62
2021/10/19 03:47:40;;;;;;;9.55;6.85;;;;;;;;;;6278246;22;20163;-62
2021/10/19 03:50:06;;;;;;;8.85;7.38;;;;;;;;;;6278483;22;20410;-62
2021/10/19 03:52:32;;;;;;;7.40;6.53;;;;;;;;;;6278102;22;20231;-61
2021/10/19 03:54:58;;;;;;;9.02;7.13;;;;;;;;;;6278379;22;20171;-62
2021/10/19 03:57:24;;;;;;;11.82;7.20;;;;;;;;;;6278007;22;20163;-61
2021/10/19 03:59:50;;;;;;;10.25;7.18;;;;;;;;;;6277984;22;20179;-62
2021/10/19 04:02:16;;;;;;;11.85;7.47;;;;;;;;;;6277863;22;20224;-62
2021/10/19 04:04:42;;;;;;;10.18;7.25;;;;;;;;;;6278429;22;20571;-62
2021/10/19 04:07:10;;;;;;;9.43;7.40;;;;;;;;;;6277768;22;20543;-62
2021/10/19 04:09:36;;;;;;;8.95;7.13;;;;;;;;;;6278458;22;20144;-62
2021/10/19 04:12:02;;;;;;;9.70;7.45;;;;;;;;;;6277920;22;20220;-62
2021/10/19 04:14:28;;;;;;;7.65;6.47;;;;;;;;;;6277738;22;20547;-62
2021/10/19 04:16:54;;;;;;;10.15;7.55;;;;;;;;;;6278211;22;20570;-62
2021/10/19 04:19:20;;;;;;;10.25;7.43;;;;;;;;;;6277726;22;20447;-62
2021/10/19 04:21:48;;;;;;;8.30;7.13;;;;;;;;;;6278018;22;20164;-62
2021/10/19 04:24:14;;;;;;;11.07;7.70;;;;;;;;;;6278823;22;20154;-62
2021/10/19 04:26:40;;;;;;;8.90;6.90;;;;;;;;;;6279613;22;20657;-62
2021/10/19 04:29:06;;;;;;;9.88;7.55;;;;;;;;;;6281280;22;20140;-62
2021/10/19 04:31:32;;;;;;;9.63;7.80;;;;;;;;;;6281793;22;20178;-62
2021/10/19 04:34:01;;;;;;;10.52;7.95;;;;;;;;;;6282004;22;20154;-62
2021/10/19 04:36:28;;;;;;;11.10;7.78;;;;;;;;;;6280633;22;20171;-62
2021/10/19 04:38:53;;;;;;;10.18;7.57;;;;;;;;;;6279597;22;20477;-62
2021/10/19 04:41:19;;;;;;;11.45;7.65;;;;;;;;;;6280055;22;20194;-61
2021/10/19 04:43:45;;;;;;;11.43;8.18;;;;;;;;;;6280106;22;20147;-62
2021/10/19 04:46:11;;;;;;;10.15;7.93;;;;;;;;;;6279406;22;20609;-62
2021/10/19 04:48:37;;;;;;;10.75;8.25;;;;;;;;;;6278649;22;20140;-62
2021/10/19 04:51:03;;;;;;;10.18;7.85;;;;;;;;;;6278187;22;20414;-62
2021/10/19 04:53:30;;;;;;;11.48;8.30;;;;;;;;;;6279018;22;20494;-61
2021/10/19 04:55:56;;;;;;;11.27;7.97;;;;;;;;;;6278881;22;20144;-62
2021/10/19 04:58:22;;;;;;;12.85;8.48;;;;;;;;;;6278447;22;20189;-62
2021/10/19 05:00:49;;;;;;;14.07;8.20;;;;;;;;;;6278165;22;20147;-62
2021/10/19 05:03:16;;;;;;;12.57;8.13;;;;;;;;;;6278277;22;20146;-62
2021/10/19 05:05:42;;;;;;;13.65;8.38;;;;;;;;;;6278978;22;20136;-62
2021/10/19 05:08:08;;;;;;;11.32;8.93;;;;;;;;;;6280293;22;20136;-62
2021/10/19 05:10:34;;;;;;;9.48;7.38;;;;;;;;;;6280641;22;20450;-62
2021/10/19 05:13:00;;;;;;;11.43;8.65;;;;;;;;;;6278923;22;20143;-61
2021/10/19 05:15:26;;;;;;;10.40;7.97;;;;;;;;;;6279812;22;20147;-62
2021/10/19 05:17:52;;;;;;;11.30;8.25;;;;;;;;;;6279843;22;20177;-62
2021/10/19 05:20:18;;;;;;;13.52;8.45;;;;;;;;;;6279016;22;20561;-63
2021/10/19 05:22:45;;;;;;;11.63;8.48;;;;;;;;;;6277694;22;20164;-62
2021/10/19 05:25:12;;;;;;;11.18;8.95;;;;;;;;;;6277511;22;20143;-62
2021/10/19 05:27:38;;;;;;;11.88;8.63;;;;;;;;;;6277406;22;20572;-62
2021/10/19 05:30:05;;;;;;;11.65;8.35;;;;;;;;;;6277378;22;20443;-62
2021/10/19 05:32:30;;;;;;;14.93;8.90;;;;;;;;;;6277812;22;20231;-62
2021/10/19 05:34:56;;;;;;;11.48;8.77;;;;;;;;;;6277781;22;20189;-62
2021/10/19 05:37:22;;;;;;;12.73;8.85;;;;;;;;;;6277358;22;20277;-63
2021/10/19 05:39:48;;;;;;;11.02;8.18;;;;;;;;;;6280344;22;20139;-62
2021/10/19 05:42:14;;;;;;;12.48;8.82;;;;;;;;;;6281204;22;20174;-62
2021/10/19 05:44:40;;;;;;;11.85;8.48;;;;;;;;;;6280870;22;20218;-63
2021/10/19 05:47:06;;;;;;;11.43;8.93;;;;;;;;;;6277810;22;20388;-63
2021/10/19 05:49:32;;;;;;;12.07;9.05;;;;;;;;;;6277479;22;20135;-62
2021/10/19 05:51:59;;;;;;;13.50;9.18;;;;;;;;;;6277346;22;20646;-62
2021/10/19 05:54:25;;;;;;;10.32;8.52;;;;;;;;;;6277717;22;20166;-62
2021/10/19 05:56:51;;;;;;;12.38;8.80;;;;;;;;;;6277555;22;20527;-62
2021/10/19 05:59:17;;;;;;;12.68;9.35;;;;;;;;;;6278017;22;20154;-63
2021/10/19 06:01:44;;;;;;;12.77;8.13;;;;;;;;;;6277378;22;20167;-62
2021/10/19 06:04:10;;;;;;;11.55;9.15;;;;;;;;;;6277030;22;20173;-62
2021/10/19 06:06:35;;;;;;;13.38;9.88;;;;;;;;;;6276626;22;20206;-62
2021/10/19 06:09:01;;;;;;;13.25;9.48;;;;;;;;;;6277082;22;20480;-62
2021/10/19 06:11:27;;;;;;;12.65;9.13;;;;;;;;;;6276762;22;20218;-62
2021/10/19 06:13:53;;;;;;;13.90;9.82;;;;;;;;;;6277927;22;20158;-62
2021/10/19 06:16:19;;;;;;;14.98;9.88;;;;;;;;;;6277423;22;20478;-62
2021/10/19 06:18:45;;;;;;;14.27;9.30;;;;;;;;;;6277466;22;20147;-62
2021/10/19 06:21:11;;;;;;;14.65;9.48;;;;;;;;;;6277210;22;20220;-62
2021/10/19 06:23:37;;;;;;;12.23;9.50;;;;;;;;;;6277562;22;20136;-62
2021/10/19 06:26:04;;;;;;;14.93;10.13;;;;;;;;;;6277566;22;20160;-62
2021/10/19 06:28:30;;;;;;;13.00;9.98;;;;;;;;;;6277981;22;20139;-61
2021/10/19 06:30:56;;;;;;;14.02;9.95;;;;;;;;;;6277742;22;20235;-62
2021/10/19 06:33:22;;;;;;;14.05;10.07;;;;;;;;;;6277874;22;20166;-63
2021/10/19 06:35:48;;;;;;;14.40;9.90;;;;;;;;;;6277903;22;20147;-63
2021/10/19 06:38:14;;;;;;;14.68;9.85;;;;;;;;;;6278006;22;20170;-63
2021/10/19 06:40:40;;;;;;;15.23;10.02;;;;;;;;;;6279211;22;20228;-63
2021/10/19 06:43:06;;;;;;;13.20;9.45;;;;;;;;;;6278582;22;20635;-63
2021/10/19 06:45:32;;;;;;;12.82;9.35;;;;;;;;;;6279508;22;20456;-63
2021/10/19 06:47:58;;;;;;;15.55;9.40;;;;;;;;;;6279751;22;20136;-63
2021/10/19 06:50:24;;;;;;;14.05;10.40;;;;;;;;;;6278945;22;20146;-63
2021/10/19 06:52:50;;;;;;;14.75;10.02;;;;;;;;;;6279525;22;20148;-63
2021/10/19 06:55:16;;;;;;;14.48;10.50;;;;;;;;;;6279298;22;20148;-63
2021/10/19 06:57:43;;;;;;;15.07;10.32;;;;;;;;;;6279123;22;20144;-62
2021/10/19 07:00:13;;;;;;;15.38;10.93;;;;;;;;;;6278498;22;20595;-63
2021/10/19 07:02:39;;;;;;;12.52;9.50;;;;;;;;;;6279277;22;20178;-63
2021/10/19 07:05:05;;;;;;;14.02;10.35;;;;;;;;;;6278144;22;20415;-63
2021/10/19 07:07:31;;;;;;;14.65;10.40;;;;;;;;;;6278846;22;20273;-62
2021/10/19 07:09:58;;;;;;;14.75;9.93;;;;;;;;;;6278183;22;20171;-62
2021/10/19 07:12:24;;;;;;;11.93;9.25;;;;;;;;;;6278527;22;20201;-62
2021/10/19 07:14:50;;;;;;;15.45;9.85;;;;;;;;;;6278188;22;20148;-62
2021/10/19 07:17:16;;;;;;;12.45;9.80;;;;;;;;;;6251751;22;20147;-62
2021/10/19 07:19:42;;;;;;;12.27;9.75;;;;;;;;;;6277999;22;20200;-62
2021/10/19 07:22:09;;;;;;;13.00;10.45;;;;;;;;;;6277683;22;20160;-62
2021/10/19 07:24:35;;;;;;;16.17;10.05;;;;;;;;;;6277824;22;20438;-62
2021/10/19 07:27:01;;;;;;;14.07;10.75;;;;;;;;;;6278171;22;20152;-62
2021/10/19 07:29:27;;;;;;;15.05;10.50;;;;;;;;;;6277128;22;20135;-62
2021/10/19 07:31:53;;;;;;;15.45;10.52;;;;;;;;;;6277111;22;20144;-62
2021/10/19 07:34:19;;;;;;;14.80;10.57;;;;;;;;;;6276599;22;20150;-62
2021/10/19 07:36:45;;;;;;;15.50;10.85;;;;;;;;;;6278528;22;20152;-62
2021/10/19 07:39:11;;;;;;;13.95;9.82;;;;;;;;;;6278618;22;20559;-63
2021/10/19 07:41:37;;;;;;;12.80;9.27;;;;;;;;;;6279123;22;20182;-62
2021/10/19 07:44:04;;;;;;;13.65;10.57;;;;;;;;;;6279270;22;20214;-63
2021/10/19 07:46:30;;;;;;;13.60;10.63;;;;;;;;;;6279149;22;20164;-63
2021/10/19 07:48:56;;;;;;;14.90;10.82;;;;;;;;;;6279349;22;20143;-62
2021/10/19 07:51:22;;;;;;;17.02;11.50;;;;;;;;;;6278355;22;20460;-63
2021/10/19 07:53:48;;;;;;;13.18;10.38;;;;;;;;;;6278550;22;20599;-62
2021/10/19 07:56:15;;;;;;;16.27;11.10;;;;;;;;;;6278068;22;20209;-62
2021/10/19 07:58:41;;;;;;;15.38;11.18;;;;;;;;;;6278484;22;20193;-63
2021/10/19 08:01:07;;;;;;;12.82;10.70;;;;;;;;;;6278342;22;20148;-63
2021/10/19 08:03:33;;;;;;;14.88;11.30;;;;;;;;;;6278932;22;20166;-63
2021/10/19 08:05:59;;;;;;;13.65;10.40;;;;;;;;;;6278213;22;20485;-62
2021/10/19 08:08:25;;;;;;;14.48;10.20;;;;;;;;;;6278496;22;20170;-62
2021/10/19 08:10:51;;;;;;;13.30;10.55;;;;;;;;;;6277947;22;20590;-62
2021/10/19 08:13:18;;;;;;;16.42;11.98;;;;;;;;;;6278589;22;20155;-62
2021/10/19 08:15:45;;;;;;;19.15;11.45;;;;;;;;;;6277870;22;20571;-62
2021/10/19 08:18:11;;;;;;;18.13;12.52;;;;;;;;;;6277960;22;20231;-63
2021/10/19 08:20:37;;;;;;;18.15;11.95;;;;;;;;;;6277904;22;20175;-63
2021/10/19 08:23:03;;;;;;;16.00;11.40;;;;;;;;;;6278002;22;20163;-63
2021/10/19 08:25:29;;;;;;;14.77;11.32;;;;;;;;;;6277845;22;20604;-63
2021/10/19 08:27:56;;;;;;;17.83;11.73;;;;;;;;;;6277882;22;20230;-63
2021/10/19 08:30:22;;;;;;;14.25;11.18;;;;;;;;;;6277780;22;20190;-63
2021/10/19 08:32:48;;;;;;;14.15;10.52;;;;;;;;;;6277494;22;20139;-63
2021/10/19 08:35:15;;;;;;;15.07;10.98;;;;;;;;;;6277488;22;20154;-63
2021/10/19 08:37:42;;;;;;;14.75;11.20;;;;;;;;;;6277370;22;20487;-63
2021/10/19 08:40:09;;;;;;;15.35;10.82;;;;;;;;;;6277866;22;20179;-63
2021/10/19 08:42:41;;;;;;;13.43;10.55;;;;;;;;;;6277572;22;20583;-63
2021/10/19 08:45:08;;;;;;;14.40;11.20;;;;;;;;;;6278580;22;20136;-64
2021/10/19 08:47:34;;;;;;;17.67;10.85;;;;;;;;;;6278236;22;20135;-64
2021/10/19 08:50:00;;;;;;;17.67;10.57;;;;;;;;;;6278203;22;20147;-64
2021/10/19 08:52:29;;;;;;;13.13;10.38;;;;;;;;;;6278299;22;20513;-64
2021/10/19 08:54:55;;;;;;;14.23;10.85;;;;;;;;;;6278332;22;20547;-63
2021/10/19 08:57:21;;;;;;;12.10;10.23;;;;;;;;;;6277959;22;20194;-63
2021/10/19 08:59:49;;;;;;;14.48;10.93;;;;;;;;;;6278616;22;20140;-62
2021/10/19 09:02:15;;;;;;;15.50;11.18;;;;;;;;;;6278822;22;20163;-64
2021/10/19 09:04:42;;;;;;;13.60;11.25;;;;;;;;;;6279085;22;20525;-64
2021/10/19 09:07:08;;;;;;;14.45;11.45;;;;;;;;;;6279491;22;20147;-63
2021/10/19 09:09:35;;;;;;;15.00;11.52;;;;;;;;;;6279365;22;20162;-64
2021/10/19 09:12:01;;;;;;;16.33;11.23;;;;;;;;;;6279263;22;20408;-64
2021/10/19 09:14:32;;;;;;;15.80;11.52;;;;;;;;;;6279519;22;20201;-63
2021/10/19 09:17:00;;;;;;;16.30;11.75;;;;;;;;;;6279661;22;20139;-63
2021/10/19 09:19:27;;;;;;;14.25;10.73;;;;;;;;;;6279913;22;20143;-63
2021/10/19 09:21:54;;;;;;;15.13;12.07;;;;;;;;;;6280073;22;20159;-63
2021/10/19 09:24:23;;;;;;;13.88;11.45;;;;;;;;;;6279742;22;20497;-63
2021/10/19 09:26:50;;;;;;;16.38;12.25;;;;;;;;;;6279422;22;20162;-63
2021/10/19 09:29:16;;;;;;;14.68;10.77;;;;;;;;;;6279767;22;20173;-63
2021/10/19 09:31:42;;;;;;;13.82;10.38;;;;;;;;;;6279302;22;20139;-63
2021/10/19 09:34:11;;;;;;;14.25;11.27;;;;;;;;;;6279134;22;20154;-63
2021/10/19 09:36:37;;;;;;;15.13;11.65;;;;;;;;;;6279053;22;20449;-63
2021/10/19 09:39:03;;;;;;;19.45;14.68;;;;;;;;;;6279081;22;20140;-63
2021/10/19 09:41:29;;;;;;;16.33;12.20;;;;;;;;;;6278626;22;20184;-63
2021/10/19 09:43:56;;;;;;;15.48;10.45;;;;;;;;;;6278518;22;20555;-63
2021/10/19 09:46:25;;;;;;;16.33;11.20;;;;;;;;;;6278336;22;20135;-63
2021/10/19 09:48:50;;;;;;;17.13;11.52;;;;;;;;;;6278103;22;20147;-63
2021/10/19 09:51:16;;;;;;;15.70;11.32;;;;;;;;;;6277775;22;20143;-63
2021/10/19 09:53:43;;;;;;;16.33;11.45;;;;;;;;;;6277650;22;20227;-63
2021/10/19 09:56:09;;;;;;;14.95;12.40;;;;;;;;;;6277578;22;20285;-63
2021/10/19 09:58:36;;;;;;;17.35;11.20;;;;;;;;;;6277432;22;20212;-63
2021/10/19 10:01:03;;;;;;;14.88;11.18;;;;;;;;;;6277303;22;20143;-63
2021/10/19 10:03:29;;;;;;;15.50;11.48;;;;;;;;;;6277659;22;20147;-63
2021/10/19 10:05:55;;;;;;;12.00;9.35;;;;;;;;;;6277274;22;20158;-64
2021/10/19 10:08:23;;;;;;;15.85;11.40;;;;;;;;;;6277219;22;20159;-63
2021/10/19 10:10:56;;;;;;;14.45;11.43;;;;;;;;;;6276984;22;20140;-63
2021/10/19 10:13:22;;;;;;;12.85;10.27;;;;;;;;;;6276626;22;20574;-63
2021/10/19 10:15:48;;;;;;;15.05;10.73;;;;;;;;;;6276540;22;20493;-63
2021/10/19 10:18:14;;;;;;;14.77;10.98;;;;;;;;;;6276822;22;20143;-63
2021/10/19 10:20:40;;;;;;;14.85;11.25;;;;;;;;;;6277375;22;20182;-63
2021/10/19 10:23:22;;;;;;;13.60;10.32;;;;;;;;;;6276565;22;20419;-63
2021/10/19 10:25:53;;;;;;;14.90;10.50;;;;;;;;;;6276979;22;20162;-63
2021/10/19 10:28:27;;;;;;;14.00;10.90;;;;;;;;;;6276997;22;20208;-63
2021/10/19 10:30:58;;;;;;;13.40;11.27;;;;;;;;;;6276904;22;20465;-63
2021/10/19 10:33:34;;;;;;;14.60;10.70;;;;;;;;;;6277787;22;20194;-63
2021/10/19 10:36:01;;;;;;;13.80;10.35;;;;;;;;;;6277088;22;20562;-63
2021/10/19 10:38:27;;;;;;;14.27;11.10;;;;;;;;;;6278500;22;20165;-63
2021/10/19 10:40:57;;;;;;;14.38;10.85;;;;;;;;;;6277926;22;20554;-63
2021/10/19 10:43:26;;;;;;;18.38;12.80;;;;;;;;;;6276890;22;20491;-63
2021/10/19 10:46:07;;;;;;;15.65;11.85;;;;;;;;;;6276639;22;20223;-63
2021/10/19 10:48:34;;;;;;;14.85;10.88;;;;;;;;;;6277076;22;20225;-63
2021/10/19 10:51:02;;;;;;;14.80;11.50;;;;;;;;;;6277110;22;20539;-63
2021/10/19 10:53:31;;;;;;;14.93;11.07;;;;;;;;;;6276826;22;20139;-63
2021/10/19 10:55:57;;;;;;;14.32;10.45;;;;;;;;;;6276718;22;20135;-63
2021/10/19 10:58:28;;;;;;;15.65;11.60;;;;;;;;;;6277057;22;20165;-63
2021/10/19 11:00:54;;;;;;;12.68;10.55;;;;;;;;;;6276881;22;20484;-63
2021/10/19 11:03:20;;;;;;;13.38;10.65;;;;;;;;;;6276555;22;20167;-63
2021/10/19 11:05:54;;;;;;;13.98;11.15;;;;;;;;;;6277114;22;20174;-63
2021/10/19 11:08:21;;;;;;;13.43;11.07;;;;;;;;;;6276809;22;20527;-63
2021/10/19 11:10:49;;;;;;;15.20;11.70;;;;;;;;;;6277611;22;20139;-63
2021/10/19 11:13:15;;;;;;;15.73;11.25;;;;;;;;;;6278931;22;20147;-63
2021/10/19 11:15:49;;;;;;;13.02;10.77;;;;;;;;;;6278596;22;20473;-63
2021/10/19 11:18:16;;;;;;;13.45;10.70;;;;;;;;;;6279003;22;20217;-63
2021/10/19 11:20:50;;;;;;;15.50;11.65;;;;;;;;;;6278689;22;20192;-63
2021/10/19 11:23:16;;;;;;;15.68;11.00;;;;;;;;;;6278535;22;20220;-63
2021/10/19 11:25:42;;;;;;;14.80;11.52;;;;;;;;;;6278243;22;20565;-63
2021/10/19 11:28:08;;;;;;;13.43;11.43;;;;;;;;;;6278172;22;20163;-63
2021/10/19 11:30:35;;;;;;;13.80;10.55;;;;;;;;;;6278278;22;20181;-63
2021/10/19 11:33:01;;;;;;;14.52;11.00;;;;;;;;;;6278314;22;20155;-63
2021/10/19 11:35:26;;;;;;;14.10;11.13;;;;;;;;;;6278824;22;20157;-63
2021/10/19 11:37:52;;;;;;;14.40;10.57;;;;;;;;;;6278226;22;20139;-63
2021/10/19 11:40:18;;;;;;;13.77;10.80;;;;;;;;;;6278213;22;20158;-63
2021/10/19 11:42:46;;;;;;;15.15;11.27;;;;;;;;;;6278090;22;20238;-63
2021/10/19 11:45:12;;;;;;;14.15;11.65;;;;;;;;;;6279022;22;20151;-63
2021/10/19 11:47:42;;;;;;;13.80;10.77;;;;;;;;;;6278091;22;20142;-63
2021/10/19 11:50:08;;;;;;;15.30;11.73;;;;;;;;;;6278462;22;20420;-63
2021/10/19 11:52:34;;;;;;;14.32;11.10;;;;;;;;;;6278117;22;20143;-63
2021/10/19 11:55:00;;;;;;;14.15;10.15;;;;;;;;;;6278104;22;20613;-63
2021/10/19 11:57:26;;;;;;;13.68;11.30;;;;;;;;;;6278031;22;20221;-63
2021/10/19 11:59:53;;;;;;;13.40;10.60;;;;;;;;;;6278044;22;20574;-63
2021/10/19 12:02:19;;;;;;;11.88;10.38;;;;;;;;;;6277587;22;20648;-63
2021/10/19 12:04:46;;;;;;;13.32;10.23;;;;;;;;;;6277932;22;20139;-63
2021/10/19 12:07:13;;;;;;;14.70;9.93;;;;;;;;;;6278001;22;20218;-63
2021/10/19 12:09:41;;;;;;;16.25;10.95;;;;;;;;;;6277749;22;20214;-62
2021/10/19 12:12:07;;;;;;;14.00;10.70;;;;;;;;;;6278276;22;20486;-62
2021/10/19 12:14:35;;;;;;;14.40;10.40;;;;;;;;;;6277924;22;20139;-62
2021/10/19 12:17:03;;;;;;;12.45;10.30;;;;;;;;;;6278331;22;20146;-62
2021/10/19 12:19:30;;;;;;;16.02;10.60;;;;;;;;;;6278067;22;20233;-62
2021/10/19 12:21:57;;;;;;;12.65;10.30;;;;;;;;;;6277542;22;20220;-63
2021/10/19 12:24:23;;;;;;;12.80;10.48;;;;;;;;;;6277825;22;20569;-62
2021/10/19 12:27:03;;;;;;;24.00;10.65;;;;;;;;;;6277942;22;20582;-62
2021/10/19 12:29:30;;;;;;;12.75;9.90;;;;;;;;;;6278006;22;20181;-62
2021/10/19 12:31:56;;;;;;;13.50;11.13;;;;;;;;;;6278068;22;20208;-62
2021/10/19 12:34:26;;;;;;;15.52;10.50;;;;;;;;;;6278188;22;20143;-63
2021/10/19 12:36:52;;;;;;;11.20;9.73;;;;;;;;;;6277931;22;20685;-62
2021/10/19 12:39:19;;;;;;;14.80;10.18;;;;;;;;;;6278156;22;20147;-62
2021/10/19 12:41:45;;;;;;;12.82;10.18;;;;;;;;;;6277804;22;20159;-62
2021/10/19 12:44:14;;;;;;;12.30;10.25;;;;;;;;;;6277686;22;20465;-62
2021/10/19 12:46:40;;;;;;;11.45;9.73;;;;;;;;;;6278067;22;20162;-63
2021/10/19 12:49:06;;;;;;;13.38;9.63;;;;;;;;;;6278001;22;20539;-62
2021/10/19 12:51:33;;;;;;;12.48;10.00;;;;;;;;;;6278064;22;20178;-63
2021/10/19 12:53:59;;;;;;;13.32;9.93;;;;;;;;;;6277812;22;20153;-62
2021/10/19 12:56:27;;;;;;;12.93;10.13;;;;;;;;;;6278402;22;20147;-62
2021/10/19 12:58:53;;;;;;;13.48;9.98;;;;;;;;;;6277509;22;20147;-62
2021/10/19 13:01:20;;;;;;;13.60;10.52;;;;;;;;;;6277581;22;20143;-62
2021/10/19 13:03:46;;;;;;;12.32;10.20;;;;;;;;;;6277629;22;20135;-63
2021/10/19 13:06:14;;;;;;;12.75;9.88;;;;;;;;;;6277592;22;20146;-62
2021/10/19 13:08:40;;;;;;;13.13;10.45;;;;;;;;;;6278235;22;20139;-62
2021/10/19 13:11:06;;;;;;;12.35;10.50;;;;;;;;;;6277497;22;20162;-62
2021/10/19 13:13:32;;;;;;;14.10;10.57;;;;;;;;;;6277678;22;20147;-62
2021/10/19 13:15:58;;;;;;;12.65;9.85;;;;;;;;;;6277892;22;20143;-62
2021/10/19 13:18:24;;;;;;;12.77;10.23;;;;;;;;;;6277522;22;20484;-62
2021/10/19 13:20:50;;;;;;;12.90;9.57;;;;;;;;;;6277486;22;20173;-62
2021/10/19 13:23:16;;;;;;;13.63;10.45;;;;;;;;;;6277179;22;20166;-62
2021/10/19 13:25:42;;;;;;;12.20;10.23;;;;;;;;;;6277330;22;20211;-62
2021/10/19 13:28:10;;;;;;;14.38;11.00;;;;;;;;;;6277318;22;20139;-62
2021/10/19 13:30:36;;;;;;;15.20;10.93;;;;;;;;;;6277802;22;20592;-62
2021/10/19 13:33:02;;;;;;;12.32;10.70;;;;;;;;;;6277402;22;20166;-63
2021/10/19 13:35:28;;;;;;;15.63;11.25;;;;;;;;;;6277710;22;20222;-63
2021/10/19 13:37:54;;;;;;;13.52;10.48;;;;;;;;;;6277717;22;20566;-62
2021/10/19 13:40:20;;;;;;;16.33;11.15;;;;;;;;;;6251074;22;20512;-63
2021/10/19 13:42:47;;;;;;;14.98;10.90;;;;;;;;;;6278433;22;20236;-62
2021/10/19 13:45:13;;;;;;;13.02;10.52;;;;;;;;;;6279134;22;20139;-63
2021/10/19 13:47:39;;;;;;;13.50;10.65;;;;;;;;;;6279094;22;20531;-63
2021/10/19 13:50:07;;;;;;;12.23;9.48;;;;;;;;;;6279189;22;20192;-63
2021/10/19 13:52:33;;;;;;;13.48;9.65;;;;;;;;;;6279547;22;20139;-63
2021/10/19 13:54:59;;;;;;;12.35;9.93;;;;;;;;;;6279424;22;20565;-63
2021/10/19 13:57:25;;;;;;;12.10;10.15;;;;;;;;;;6279140;22;20143;-63
2021/10/19 13:59:51;;;;;;;11.95;9.70;;;;;;;;;;6279095;22;20143;-63
2021/10/19 14:02:17;;;;;;;14.13;10.60;;;;;;;;;;6279126;22;20163;-63
2021/10/19 14:04:43;;;;;;;12.32;10.15;;;;;;;;;;6278812;22;20135;-63
2021/10/19 14:07:09;;;;;;;15.15;11.00;;;;;;;;;;6278294;22;20214;-63
2021/10/19 14:09:35;;;;;;;12.85;9.88;;;;;;;;;;6278661;22;20150;-63
2021/10/19 14:12:01;;;;;;;12.38;9.63;;;;;;;;;;6278007;22;20171;-63
2021/10/19 14:14:28;;;;;;;13.00;9.77;;;;;;;;;;6278278;22;20440;-63
2021/10/19 14:16:55;;;;;;;12.40;10.32;;;;;;;;;;6278612;22;20566;-63
2021/10/19 14:19:21;;;;;;;10.95;9.32;;;;;;;;;;6277983;22;20169;-63
2021/10/19 14:21:47;;;;;;;17.15;10.93;;;;;;;;;;6278158;22;20163;-63
2021/10/19 14:24:13;;;;;;;12.05;9.50;;;;;;;;;;6277902;22;20649;-63